Time;durP1;ratioP1;P1;durP2;ratioP2;P2;SDS_P1;SDS_P2;PMS_P1;PMS_P2;Temp;Humidity;BMP_temperature;BMP_pressure;BME280_temperature;BME280_humidity;BME280_pressure;Samples;Min_cycle;Max_cycle;Signal;HPM_P1;HPM_P2
2021/12/05 00:17:10;;;;;;;;;1.33;0.00;;;;;7.51;62.63;99875.00;5073997;28;45477;-81
2021/12/05 00:22:23;;;;;;;;;3.00;1.00;;;;;7.51;62.61;99875.00;5074057;27;45453;-82
2021/12/05 00:24:51;;;;;;;;;0.33;0.33;;;;;7.53;62.09;99880.25;5073481;28;46585;-82
2021/12/05 00:27:21;;;;;;;;;0.00;0.00;;;;;7.52;62.56;99873.97;5074415;27;45378;-84
2021/12/05 00:30:37;;;;;;;;;0.00;0.00;;;;;7.54;62.16;99869.13;5074395;28;45498;-83
2021/12/05 00:33:04;;;;;;;;;0.00;0.00;;;;;7.43;62.19;99839.75;5074391;28;45489;-82
2021/12/05 00:43:43;;;;;;;;;1.00;1.00;;;;;7.46;61.96;99847.53;5073540;27;45433;-82
2021/12/05 01:05:32;;;;;;;;;1.00;1.00;;;;;7.31;62.90;99827.81;5073371;28;45837;-82
2021/12/05 01:15:09;;;;;;;;;2.00;1.00;;;;;7.38;62.44;99824.03;5055619;28;45731;-77
2021/12/05 01:18:02;;;;;;;;;1.00;0.67;;;;;7.45;62.60;99823.19;5085873;27;48317;-76
2021/12/05 01:20:25;;;;;;;;;0.00;0.00;;;;;7.42;62.57;99821.69;5072094;28;45713;-76
2021/12/05 01:22:58;;;;;;;;;0.00;0.00;;;;;7.46;62.34;99820.25;5072833;27;45485;-80
2021/12/05 01:25:45;;;;;;;;;0.00;0.00;;;;;7.49;62.08;99814.34;5072539;27;45756;-78
2021/12/05 01:33:56;;;;;;;;;2.33;1.33;;;;;7.55;62.40;99821.69;5072152;28;45659;-80
2021/12/05 01:36:34;;;;;;;;;1.00;1.00;;;;;7.57;61.85;99827.78;5072226;28;45837;-82
2021/12/05 01:39:27;;;;;;;;;1.00;1.00;;;;;7.56;62.42;99815.19;5072635;27;45444;-80
2021/12/05 01:55:01;;;;;;;;;3.67;1.00;;;;;7.35;62.59;99796.31;5072632;27;45771;-77
2021/12/05 02:34:41;;;;;;;;;0.00;0.00;;;;;6.63;64.17;99806.97;5050330;28;45640;-77
2021/12/05 02:37:32;;;;;;;;;2.00;0.33;;;;;6.56;64.25;99798.78;5050306;28;45645;-78
2021/12/05 02:42:58;;;;;;;;;1.00;0.00;;;;;6.60;64.10;99791.91;5073590;28;45743;-78
2021/12/05 02:45:25;;;;;;;;;2.00;0.00;;;;;6.59;63.53;99770.31;5072512;28;45537;-79
2021/12/05 02:47:53;;;;;;;;;1.33;0.00;;;;;6.61;63.53;99774.47;5067184;28;45547;-80
2021/12/05 02:50:22;;;;;;;;;1.00;0.00;;;;;6.56;64.33;99778.88;5070420;28;46369;-80
2021/12/05 02:52:48;;;;;;;;;0.00;0.00;;;;;6.56;63.85;99777.00;5066005;28;46023;-81
2021/12/05 02:55:24;;;;;;;;;2.00;1.00;;;;;6.48;64.82;99764.41;5050494;28;45456;-80
2021/12/05 02:58:02;;;;;;;;;0.00;0.00;;;;;6.51;63.96;99757.69;5052643;28;45508;-79
2021/12/05 03:03:01;;;;;;;;;1.00;1.00;;;;;6.48;64.80;99764.41;5052408;28;45526;-80
2021/12/05 03:05:26;;;;;;;;;0.00;0.00;;;;;6.46;64.63;99766.50;5052178;28;45331;-76
2021/12/05 03:07:57;;;;;;;;;0.33;0.33;;;;;6.43;64.44;99755.19;5067719;28;45376;-78
2021/12/05 03:10:23;;;;;;;;;1.00;1.00;;;;;6.42;64.62;99756.22;5072678;27;45722;-78
2021/12/05 03:12:49;;;;;;;;;0.00;0.00;;;;;6.39;64.41;99743.03;5072563;27;46352;-79
2021/12/05 03:15:17;;;;;;;;;1.00;1.00;;;;;6.35;64.92;99765.22;5072621;28;45424;-77
2021/12/05 03:17:43;;;;;;;;;0.33;0.33;;;;;6.33;64.57;99756.44;5062858;28;45818;-77
2021/12/05 03:20:10;;;;;;;;;1.00;1.00;;;;;6.36;65.15;99766.91;5068524;28;45505;-78
2021/12/05 03:22:36;;;;;;;;;0.33;0.00;;;;;6.34;64.75;99754.53;5072169;27;46221;-77
2021/12/05 03:25:03;;;;;;;;;0.33;0.33;;;;;6.36;64.29;99746.97;5071794;28;46002;-71
2021/12/05 03:27:28;;;;;;;;;1.33;0.00;;;;;6.37;64.73;99751.41;5071485;27;45774;-72
2021/12/05 03:29:54;;;;;;;;;0.67;0.67;;;;;6.35;64.49;99750.78;5071200;27;45708;-71
2021/12/05 03:32:19;;;;;;;;;0.00;0.00;;;;;6.35;64.28;99748.88;5071034;27;46788;-72
2021/12/05 03:34:45;;;;;;;;;0.00;0.00;;;;;6.33;64.67;99744.69;5071287;27;45760;-70
2021/12/05 03:37:11;;;;;;;;;0.00;0.00;;;;;6.32;64.75;99743.03;5070986;28;45767;-72
2021/12/05 03:39:37;;;;;;;;;0.00;0.00;;;;;6.30;64.76;99739.63;5073708;28;45370;-72
2021/12/05 03:42:04;;;;;;;;;0.00;0.00;;;;;6.29;65.00;99754.31;5073954;27;46306;-73
2021/12/05 03:44:32;;;;;;;;;0.00;0.00;;;;;6.28;64.73;99749.91;5055941;28;46151;-74
2021/12/05 03:46:59;;;;;;;;;0.00;0.00;;;;;6.30;65.24;99751.41;5074085;27;45448;-73
2021/12/05 03:49:27;;;;;;;;;0.00;0.00;;;;;6.33;64.90;99748.25;5074387;27;45926;-74
2021/12/05 03:51:58;;;;;;;;;1.00;1.00;;;;;6.34;64.03;99740.91;5074386;27;45662;-73
2021/12/05 03:54:23;;;;;;;;;0.67;0.67;;;;;6.35;63.87;99742.59;5072613;28;45455;-72
2021/12/05 03:56:49;;;;;;;;;0.00;0.00;;;;;6.34;64.09;99735.47;5072430;28;45789;-71
2021/12/05 03:59:17;;;;;;;;;1.00;0.00;;;;;6.31;64.48;99734.00;5073926;27;45716;-74
2021/12/05 04:01:44;;;;;;;;;0.00;0.00;;;;;6.30;64.04;99731.47;5074627;27;45807;-72
2021/12/05 04:04:10;;;;;;;;;0.00;0.00;;;;;6.32;64.76;99732.94;5074229;27;45417;-74
2021/12/05 04:06:37;;;;;;;;;0.00;0.00;;;;;6.33;64.28;99734.63;5068096;28;45925;-74
2021/12/05 04:09:07;;;;;;;;;0.00;0.00;;;;;6.29;64.23;99727.09;5074099;28;45474;-80
2021/12/05 04:11:38;;;;;;;;;0.00;0.00;;;;;6.27;64.42;99724.56;5056351;28;47771;-79
2021/12/05 04:14:06;;;;;;;;;0.67;0.00;;;;;6.29;64.69;99729.81;5076590;28;45483;-80
2021/12/05 04:16:33;;;;;;;;;1.00;0.00;;;;;6.25;64.31;99728.53;5077729;28;45358;-79
2021/12/05 04:18:59;;;;;;;;;0.00;0.00;;;;;6.29;64.19;99738.00;5056371;28;45505;-80
2021/12/05 04:21:25;;;;;;;;;0.00;0.00;;;;;6.30;63.24;99734.19;5075402;28;45369;-79
2021/12/05 04:23:50;;;;;;;;;1.00;0.00;;;;;6.32;63.74;99735.69;5075395;27;45424;-80
2021/12/05 04:26:18;;;;;;;;;0.33;0.33;;;;;6.32;63.45;99732.13;5074847;28;45417;-79
2021/12/05 04:28:44;;;;;;;;;0.00;0.00;;;;;6.31;63.37;99725.81;5075976;27;45933;-80
2021/12/05 04:31:10;;;;;;;;;1.00;0.00;;;;;6.31;63.07;99723.09;5074891;27;46610;-79
2021/12/05 04:33:36;;;;;;;;;1.00;0.00;;;;;6.31;63.36;99720.38;5074784;27;45475;-78
2021/12/05 04:36:03;;;;;;;;;1.00;1.00;;;;;6.33;63.60;99717.44;5074733;27;45747;-77
2021/12/05 04:38:29;;;;;;;;;1.00;0.00;;;;;6.33;62.32;99717.44;5074769;27;45788;-78
2021/12/05 04:40:54;;;;;;;;;0.00;0.00;;;;;6.33;63.04;99722.88;5073669;27;46250;-78
2021/12/05 04:43:20;;;;;;;;;0.00;0.00;;;;;6.34;63.05;99709.06;5073703;27;45639;-79
2021/12/05 04:45:45;;;;;;;;;0.00;0.00;;;;;6.32;63.30;99702.19;5070601;28;45405;-78
2021/12/05 04:48:11;;;;;;;;;0.67;0.00;;;;;6.34;63.63;99709.06;5072468;28;45851;-77
2021/12/05 04:50:38;;;;;;;;;0.00;0.00;;;;;6.31;63.75;99714.09;5073693;27;46239;-77
2021/12/05 04:53:05;;;;;;;;;0.00;0.00;;;;;6.28;63.55;99703.63;5073802;27;45795;-79
2021/12/05 04:55:31;;;;;;;;;0.00;0.00;;;;;6.30;62.99;99706.97;5073854;27;45402;-79
2021/12/05 04:57:57;;;;;;;;;0.00;0.00;;;;;6.27;63.05;99699.22;5071604;27;45495;-79
2021/12/05 05:00:30;;;;;;;;;1.33;0.00;;;;;6.26;62.93;99692.13;5069887;28;45877;-76
2021/12/05 05:02:56;;;;;;;;;0.00;0.00;;;;;6.22;63.38;99702.56;5070055;27;45812;-77
2021/12/05 05:05:23;;;;;;;;;0.00;0.00;;;;;6.19;64.24;99701.06;5071244;27;45466;-78
2021/12/05 05:07:49;;;;;;;;;0.00;0.00;;;;;6.22;63.82;99707.19;5067489;28;45727;-77
2021/12/05 05:10:24;;;;;;;;;0.00;0.00;;;;;6.26;63.73;99705.72;5060939;27;46057;-77
2021/12/05 05:12:50;;;;;;;;;0.00;0.00;;;;;6.23;63.13;99700.66;5067702;27;45711;-78
2021/12/05 05:15:21;;;;;;;;;0.00;0.00;;;;;6.24;62.98;99691.47;5066477;28;45441;-78
2021/12/05 05:17:50;;;;;;;;;0.00;0.00;;;;;6.23;63.37;99690.63;5065295;27;45805;-80
2021/12/05 05:28:57;;;;;;;;;0.00;0.00;;;;;6.38;63.31;99695.03;5068979;28;45745;-80
2021/12/05 05:52:21;;;;;;;;;0.00;0.00;;;;;6.84;62.67;99705.97;5066954;28;46172;-79
2021/12/05 05:54:49;;;;;;;;;0.33;0.33;;;;;6.91;62.79;99707.84;5067159;27;45760;-80
2021/12/05 05:57:30;;;;;;;;;0.00;0.00;;;;;6.93;63.29;99700.28;5057138;28;45319;-80
2021/12/05 06:00:07;;;;;;;;;0.00;0.00;;;;;6.84;62.23;99675.16;5054193;28;45841;-79
2021/12/05 06:05:17;;;;;;;;;1.00;0.00;;;;;6.98;62.85;99689.63;5052261;28;45453;-79
2021/12/05 06:07:45;;;;;;;;;1.00;0.00;;;;;6.87;62.21;99675.56;5057252;27;45964;-76
2021/12/05 06:10:13;;;;;;;;;0.00;0.00;;;;;6.93;62.81;99682.06;5061571;27;45842;-79
2021/12/05 06:12:40;;;;;;;;;0.00;0.00;;;;;6.93;62.67;99673.03;5069510;27;45675;-78
2021/12/05 06:15:08;;;;;;;;;0.67;0.00;;;;;6.96;63.43;99676.19;5068327;28;45489;-80
2021/12/05 06:17:35;;;;;;;;;0.00;0.00;;;;;6.97;62.63;99682.47;5065366;27;45484;-80
2021/12/05 06:20:01;;;;;;;;;0.33;0.33;;;;;6.98;62.99;99687.72;5063991;27;45566;-81
2021/12/05 06:22:26;;;;;;;;;0.33;0.00;;;;;7.02;62.85;99688.13;5071192;27;45750;-79
2021/12/05 06:24:52;;;;;;;;;1.33;0.00;;;;;7.02;63.13;99693.56;5063765;27;45394;-80
2021/12/05 06:27:18;;;;;;;;;0.00;0.00;;;;;7.00;62.35;99690.22;5068475;27;45500;-79
2021/12/05 06:29:51;;;;;;;;;0.00;0.00;;;;;7.05;62.59;99690.41;5065516;27;45874;-79
2021/12/05 06:32:40;;;;;;;;;0.00;0.00;;;;;7.04;63.35;99692.31;5059935;27;47037;-78
2021/12/05 06:38:07;;;;;;;;;0.00;0.00;;;;;7.13;63.10;99690.22;5060965;27;45523;-79
2021/12/05 06:46:01;;;;;;;;;0.00;0.00;;;;;7.22;61.93;99688.94;5060236;27;45880;-78
2021/12/05 06:48:37;;;;;;;;;0.00;0.00;;;;;7.23;62.10;99689.75;5070128;27;45414;-79
2021/12/05 06:51:04;;;;;;;;;2.67;1.00;;;;;7.34;62.51;99715.56;5073770;27;45768;-78
2021/12/05 06:53:30;;;;;;;;;1.33;0.00;;;;;7.41;61.85;99711.75;5064190;27;46269;-77
2021/12/05 06:55:55;;;;;;;;;1.00;0.00;;;;;7.44;62.02;99713.22;5065150;27;46011;-76
2021/12/05 06:58:21;;;;;;;;;0.33;0.00;;;;;7.42;62.58;99710.72;5067224;27;45583;-78
2021/12/05 07:00:46;;;;;;;;;0.00;0.00;;;;;7.42;63.10;99704.41;5053668;28;46446;-78
2021/12/05 07:03:12;;;;;;;;;0.33;0.00;;;;;7.46;63.98;99704.84;5058977;27;48292;-79
2021/12/05 07:05:46;;;;;;;;;1.00;1.00;;;;;7.47;62.95;99712.81;5050632;28;45846;-78
2021/12/05 07:08:14;;;;;;;;;0.00;0.00;;;;;7.47;63.08;99712.81;5066777;27;45721;-77
2021/12/05 07:16:09;;;;;;;;;0.33;0.33;;;;;7.49;62.46;99707.97;5066133;27;45458;-78
2021/12/05 07:18:43;;;;;;;;;1.00;1.00;;;;;7.47;62.92;99706.50;5068010;27;45818;-78
2021/12/05 07:21:26;;;;;;;;;0.67;0.67;;;;;7.48;63.24;99714.47;5068135;27;45770;-78
2021/12/05 07:24:15;;;;;;;;;1.33;1.00;;;;;7.50;63.73;99717.84;5065046;27;46329;-78
2021/12/05 07:42:47;;;;;;;;;2.00;0.00;;;;;7.65;62.22;99709.38;5071699;27;45566;-77
2021/12/05 07:45:19;;;;;;;;;1.00;1.00;;;;;7.68;62.89;99717.16;5078955;27;45500;-78
2021/12/05 07:47:49;;;;;;;;;0.00;0.00;;;;;7.72;62.59;99714.81;5067342;27;45959;-79
2021/12/05 07:50:15;;;;;;;;;0.00;0.00;;;;;7.70;62.99;99714.19;5065274;27;45751;-74
2021/12/05 07:52:46;;;;;;;;;1.00;0.00;;;;;7.75;62.89;99717.97;5069808;27;45831;-73
2021/12/05 07:55:22;;;;;;;;;0.00;0.00;;;;;7.78;62.44;99714.81;5070391;27;46258;-74
2021/12/05 07:58:08;;;;;;;;;2.33;0.00;;;;;7.78;62.72;99723.00;5072823;28;45670;-71
2021/12/05 08:00:47;;;;;;;;;0.00;0.00;;;;;7.83;62.41;99726.94;5067434;28;45419;-71
2021/12/05 08:16:55;;;;;;;;;5.33;4.33;;;;;8.09;63.79;99726.00;5071391;28;45772;-72
2021/12/05 08:19:20;;;;;;;;;23.67;22.67;;;;;8.11;63.81;99729.34;5071284;27;45848;-72
2021/12/05 08:21:50;;;;;;;;;7.33;5.33;;;;;8.16;63.19;99720.47;5070201;28;45739;-73
2021/12/05 08:24:15;;;;;;;;;11.33;10.33;;;;;8.14;63.85;99715.25;5070590;27;45838;-73
2021/12/05 08:26:43;;;;;;;;;5.00;5.00;;;;;8.15;63.52;99716.09;5066402;28;47232;-71
2021/12/05 08:29:13;;;;;;;;;1.00;1.00;;;;;8.25;62.55;99725.50;5069381;27;45499;-73
2021/12/05 08:37:11;;;;;;;;;1.33;0.33;;;;;8.36;63.07;99747.69;5051993;28;45820;-73
2021/12/05 08:42:53;;;;;;;;;1.33;1.00;;;;;8.28;62.90;99746.91;5051037;28;45539;-72
2021/12/05 09:23:51;;;;;;;;;2.00;1.00;;;;;12.44;53.62;99750.31;5072955;28;45945;-76
2021/12/05 09:26:34;;;;;;;;;3.33;2.00;;;;;13.06;51.73;99744.00;5072827;28;45678;-75
2021/12/05 10:07:23;;;;;;;;;5.00;1.00;;;;;11.20;54.95;99777.03;5067340;27;45720;-81
2021/12/05 10:10:04;;;;;;;;;7.33;2.67;;;;;11.23;55.77;99766.41;5066836;27;45528;-81
2021/12/05 10:12:59;;;;;;;;;2.67;2.67;;;;;11.36;54.50;99765.34;5074364;27;45484;-79
2021/12/05 10:37:37;;;;;;;;;2.33;2.33;;;;;11.77;54.81;99766.25;5065019;27;45913;-72
2021/12/05 10:40:06;;;;;;;;;3.00;2.00;;;;;11.79;54.18;99766.84;5069176;27;45710;-74
2021/12/05 10:42:43;;;;;;;;;2.67;2.67;;;;;11.66;54.21;99751.47;5079296;27;45904;-77
2021/12/05 10:45:39;;;;;;;;;5.00;2.00;;;;;11.60;54.63;99763.41;5068233;28;45550;-80
2021/12/05 10:48:10;;;;;;;;;2.00;2.00;;;;;11.56;54.70;99761.41;5065427;27;46077;-80
2021/12/05 10:50:38;;;;;;;;;2.00;2.00;;;;;11.55;55.31;99763.28;5073094;27;45654;-78
2021/12/05 10:53:28;;;;;;;;;2.33;2.33;;;;;11.49;55.46;99756.84;5072050;27;45535;-80
2021/12/05 10:56:06;;;;;;;;;2.00;2.00;;;;;11.52;54.79;99755.53;5063311;27;45830;-73
2021/12/05 10:58:55;;;;;;;;;2.00;2.00;;;;;11.48;54.77;99746.09;5058786;27;46732;-80
2021/12/05 11:01:47;;;;;;;;;5.33;3.00;;;;;11.49;55.01;99748.59;5042316;27;45635;-80
2021/12/05 11:04:24;;;;;;;;;2.33;2.33;;;;;11.36;54.98;99753.50;5062042;27;45836;-80
2021/12/05 11:06:52;;;;;;;;;2.00;2.00;;;;;11.13;55.54;99745.00;5067569;27;46061;-79
2021/12/05 11:09:31;;;;;;;;;1.67;1.67;;;;;11.08;55.78;99746.81;5074181;28;46258;-81
2021/12/05 11:12:03;;;;;;;;;3.33;2.33;;;;;10.96;56.04;99749.53;5072454;28;45527;-83
2021/12/05 11:14:33;;;;;;;;;2.67;2.67;;;;;10.91;56.61;99752.16;5058384;28;45790;-82
2021/12/05 11:17:04;;;;;;;;;2.00;2.00;;;;;10.86;56.75;99754.78;5058169;28;45635;-82
2021/12/05 11:19:35;;;;;;;;;4.00;2.00;;;;;10.80;57.52;99755.72;5072535;28;45643;-82
2021/12/05 11:22:16;;;;;;;;;2.00;2.00;;;;;10.69;57.87;99760.06;5076839;27;45732;-82
2021/12/05 11:24:46;;;;;;;;;3.33;2.00;;;;;10.65;57.74;99756.16;5065789;27;45618;-83
2021/12/05 11:27:20;;;;;;;;;4.00;4.00;;;;;10.59;58.20;99769.72;5056951;28;45378;-82
2021/12/05 11:30:04;;;;;;;;;3.33;2.00;;;;;10.57;58.82;99766.38;5056558;28;46075;-78
2021/12/05 11:32:51;;;;;;;;;5.00;3.00;;;;;10.44;59.02;99760.25;5050762;28;45758;-72
2021/12/05 11:35:26;;;;;;;;;5.00;5.00;;;;;10.40;60.00;99774.44;5065487;28;45353;-75
2021/12/05 11:38:09;;;;;;;;;3.00;3.00;;;;;10.34;60.38;99780.81;5071200;27;45288;-73
2021/12/05 11:40:46;;;;;;;;;2.33;2.00;;;;;10.23;59.60;99778.84;5071553;27;45757;-73
2021/12/05 11:43:19;;;;;;;;;2.33;1.33;;;;;10.04;59.87;99783.47;5058957;28;45411;-73
2021/12/05 11:46:12;;;;;;;;;5.33;3.00;;;;;9.85;60.76;99788.13;5057523;28;45654;-84
2021/12/05 11:48:42;;;;;;;;;3.67;1.67;;;;;9.69;61.29;99792.31;5071939;28;45495;-82
2021/12/05 11:51:30;;;;;;;;;2.00;2.00;;;;;9.56;61.99;99790.53;5080715;27;45305;-84
2021/12/05 11:54:08;;;;;;;;;1.67;1.33;;;;;9.55;61.56;99794.34;5073267;28;46112;-84
2021/12/05 11:56:34;;;;;;;;;1.00;1.00;;;;;9.59;60.56;99803.75;5068015;27;45406;-81
2021/12/05 11:59:11;;;;;;;;;1.00;1.00;;;;;9.57;61.26;99813.28;5076872;28;45447;-85
2021/12/05 12:01:42;;;;;;;;;1.67;1.67;;;;;9.52;60.67;99801.09;5080723;27;45474;-84
2021/12/05 12:04:10;;;;;;;;;2.33;1.33;;;;;9.45;60.89;99814.00;5071193;28;45883;-84
2021/12/05 12:06:37;;;;;;;;;0.00;0.00;;;;;9.46;59.98;99812.09;5084484;27;45411;-84
2021/12/05 12:09:03;;;;;;;;;0.00;0.00;;;;;9.48;59.32;99804.53;5074297;28;45425;-83
2021/12/05 12:11:34;;;;;;;;;0.00;0.00;;;;;9.49;59.69;99809.78;5071662;27;45525;-84
2021/12/05 12:14:00;;;;;;;;;0.00;0.00;;;;;9.38;60.09;99787.78;5069127;28;45462;-84
2021/12/05 12:16:26;;;;;;;;;0.33;0.33;;;;;9.47;59.53;99802.84;5070391;27;45462;-83
2021/12/05 12:18:52;;;;;;;;;2.00;1.00;;;;;9.51;60.24;99804.06;5070703;28;45726;-83
2021/12/05 12:21:27;;;;;;;;;2.00;1.00;;;;;9.43;60.27;99810.69;5062750;28;47157;-82
2021/12/05 12:23:57;;;;;;;;;1.00;1.00;;;;;9.45;59.95;99814.00;5074032;28;44748;-86
2021/12/05 12:26:27;;;;;;;;;0.67;0.67;;;;;9.47;58.11;99819.25;5065876;28;45443;-85
2021/12/05 12:28:55;;;;;;;;;1.00;1.00;;;;;9.40;58.95;99802.06;5080578;27;46632;-80
2021/12/05 12:31:33;;;;;;;;;1.33;1.33;;;;;9.56;58.42;99815.16;5065506;27;45897;-81
2021/12/05 12:34:06;;;;;;;;;0.67;0.67;;;;;9.61;58.35;99815.34;5061574;28;45725;-80
2021/12/05 12:36:36;;;;;;;;;1.00;1.00;;;;;9.63;58.35;99829.63;5073362;28;45835;-78
2021/12/05 12:39:24;;;;;;;;;1.00;1.00;;;;;9.39;57.63;99787.56;5073474;28;45898;-78
2021/12/05 12:42:12;;;;;;;;;1.00;1.00;;;;;9.57;58.12;99833.28;5075044;28;47203;-76
2021/12/05 12:44:58;;;;;;;;;3.67;2.33;;;;;9.56;58.19;99823.38;5070858;28;45379;-76
2021/12/05 12:47:41;;;;;;;;;1.00;1.00;;;;;9.69;58.17;99834.22;5055144;28;45872;-77
2021/12/05 12:50:21;;;;;;;;;0.33;0.33;;;;;9.78;57.38;99842.16;5071574;28;45577;-78
2021/12/05 12:52:59;;;;;;;;;3.00;1.00;;;;;9.90;56.87;99840.31;5075408;28;46366;-78
2021/12/05 12:55:36;;;;;;;;;2.00;1.00;;;;;10.01;57.96;99836.81;5058249;28;45897;-78
2021/12/05 12:58:06;;;;;;;;;1.33;1.33;;;;;10.11;56.73;99841.78;5064508;28;45828;-78
2021/12/05 13:00:37;;;;;;;;;1.00;1.00;;;;;10.18;57.06;99841.69;5075842;28;45484;-74
2021/12/05 13:03:25;;;;;;;;;3.33;1.00;;;;;10.25;56.43;99831.50;5072260;28;47186;-75
2021/12/05 13:11:11;;;;;;;;;2.00;2.00;;;;;10.59;55.90;99843.75;5063389;28;45831;-80
2021/12/05 13:13:47;;;;;;;;;2.00;2.00;;;;;10.55;56.05;99834.31;5070415;27;46302;-81
2021/12/05 13:16:29;;;;;;;;;1.00;1.00;;;;;10.69;56.08;99854.16;5066629;28;46031;-76
2021/12/05 13:19:24;;;;;;;;;;;;;;;;;;;;;
2021/12/05 13:22:10;;;;;;;;;2.00;1.00;;;;;10.85;55.73;99841.69;5071126;28;74963;-81
2021/12/05 13:25:10;;;;;;;;;2.00;2.00;;;;;11.06;55.99;99855.97;5065818;28;46032;-86
2021/12/05 13:27:37;;;;;;;;;2.00;2.00;;;;;11.08;55.29;99840.94;5074977;28;46001;-86
2021/12/05 13:30:03;;;;;;;;;2.00;1.00;;;;;11.15;54.82;99831.75;5079358;27;45796;-86
2021/12/05 13:32:32;;;;;;;;;1.00;1.00;;;;;11.35;54.75;99856.13;5078505;28;46128;-86
2021/12/05 13:35:01;;;;;;;;;1.67;1.67;;;;;11.37;54.48;99854.00;5080711;28;48212;-86
2021/12/05 13:37:30;;;;;;;;;3.33;2.00;;;;;11.39;54.95;99852.72;5080019;27;45795;-85
2021/12/05 13:40:11;;;;;;;;;5.00;2.00;;;;;11.41;54.81;99853.31;5074532;28;45561;-82
2021/12/05 13:42:42;;;;;;;;;3.33;1.67;;;;;11.34;54.60;99860.81;5067371;28;45225;-84
2021/12/05 13:45:31;;;;;;;;;2.00;2.00;;;;;11.37;55.28;99860.31;5080858;27;45717;-83
2021/12/05 13:47:58;;;;;;;;;2.00;2.00;;;;;11.36;54.58;99864.16;5068825;28;45580;-84
2021/12/05 13:50:47;;;;;;;;;1.00;1.00;;;;;11.34;55.67;99874.53;5064230;28;45379;-85
2021/12/05 13:53:13;;;;;;;;;1.00;1.00;;;;;11.26;55.20;99859.25;5085843;27;46679;-85
2021/12/05 13:55:53;;;;;;;;;2.67;2.67;;;;;11.36;55.43;99872.41;5069944;27;46729;-86
2021/12/05 13:58:22;;;;;;;;;3.00;3.00;;;;;11.45;55.53;99864.63;5073317;28;45568;-85
2021/12/05 14:01:12;;;;;;;;;3.33;2.33;;;;;11.49;55.15;99869.41;5069318;27;45888;-84
2021/12/05 14:03:42;;;;;;;;;3.33;2.00;;;;;11.48;54.72;99876.00;5071774;28;45443;-85
2021/12/05 14:06:30;;;;;;;;;2.33;2.00;;;;;11.43;54.97;99875.84;5086520;27;46828;-85
2021/12/05 14:09:20;;;;;;;;;2.00;2.00;;;;;11.36;55.33;99872.41;5065442;27;45515;-85
2021/12/05 14:11:57;;;;;;;;;2.33;2.33;;;;;11.39;55.65;99882.91;5076815;27;45509;-84
2021/12/05 14:14:37;;;;;;;;;3.00;2.00;;;;;11.14;55.28;99850.16;5089482;27;45675;-84
2021/12/05 14:17:15;;;;;;;;;2.67;2.33;;;;;11.24;55.76;99874.25;5081866;27;47173;-83
2021/12/05 14:19:52;;;;;;;;;1.33;1.33;;;;;11.18;55.51;99883.44;5060263;27;45920;-83
2021/12/05 14:22:29;;;;;;;;;3.00;2.00;;;;;10.93;56.46;99870.72;5065437;28;45770;-83
2021/12/05 14:24:57;;;;;;;;;1.00;1.00;;;;;10.89;56.39;99881.31;5066406;28;46229;-82
2021/12/05 14:27:29;;;;;;;;;2.00;1.00;;;;;10.93;56.33;99881.69;5074062;27;47458;-84
2021/12/05 14:29:54;;;;;;;;;2.00;2.00;;;;;10.91;56.81;99894.78;5076590;28;45899;-82
2021/12/05 14:32:32;;;;;;;;;2.00;2.00;;;;;10.91;56.66;99903.03;5069939;27;45176;-82
2021/12/05 14:35:13;;;;;;;;;5.00;3.00;;;;;10.90;57.51;99910.41;5073643;27;45457;-82
2021/12/05 14:37:42;;;;;;;;;4.67;3.00;;;;;10.95;56.97;99904.25;5068210;27;46744;-83
2021/12/05 14:40:11;;;;;;;;;5.00;4.00;;;;;10.95;57.05;99912.47;5063341;27;45578;-83
2021/12/05 14:42:44;;;;;;;;;6.00;1.00;;;;;10.96;57.30;99914.16;5073066;27;46267;-81
2021/12/05 14:45:14;;;;;;;;;1.00;1.00;;;;;10.91;56.85;99922.22;5061021;27;45906;-82
2021/12/05 14:47:42;;;;;;;;;3.67;2.33;;;;;10.79;56.49;99935.88;5086822;27;48189;-84
2021/12/05 14:50:20;;;;;;;;;2.00;2.00;;;;;10.80;57.05;99936.72;5069509;27;45805;-83
2021/12/05 14:52:50;;;;;;;;;5.00;4.00;;;;;10.77;57.37;99938.84;5081539;27;45524;-84
2021/12/05 14:55:20;;;;;;;;;2.00;2.00;;;;;10.73;57.14;99948.63;5065161;27;45536;-77
2021/12/05 14:57:49;;;;;;;;;3.00;2.00;;;;;10.73;57.19;99948.63;5067293;27;46061;-75
2021/12/05 15:00:19;;;;;;;;;4.00;3.00;;;;;10.69;57.64;99947.41;5033228;28;45966;-73
2021/12/05 15:02:46;;;;;;;;;2.00;2.00;;;;;10.71;58.16;99952.66;5057540;27;45836;-75
2021/12/05 15:05:17;;;;;;;;;4.00;3.00;;;;;10.69;57.88;99958.38;5057283;27;45911;-75
2021/12/05 15:07:44;;;;;;;;;3.33;3.00;;;;;10.59;58.55;99950.66;5064649;27;45756;-74
2021/12/05 15:10:17;;;;;;;;;3.67;3.67;;;;;10.55;58.23;99962.31;5063589;27;45895;-74
2021/12/05 15:12:43;;;;;;;;;5.33;3.67;;;;;10.54;58.62;99963.41;5057780;28;45727;-75
2021/12/05 15:15:12;;;;;;;;;2.33;2.33;;;;;10.55;58.67;99970.56;5068695;27;45461;-75
2021/12/05 15:17:40;;;;;;;;;4.33;4.33;;;;;10.47;58.91;99977.19;5063459;27;46641;-75
2021/12/05 15:20:13;;;;;;;;;5.33;3.33;;;;;10.46;59.50;99985.63;5064998;27;45338;-73
2021/12/05 15:22:40;;;;;;;;;3.67;3.67;;;;;10.40;59.89;99995.59;5063251;28;45383;-75
2021/12/05 15:25:09;;;;;;;;;4.00;4.00;;;;;10.31;60.19;99992.25;5061971;27;45758;-75
2021/12/05 15:27:37;;;;;;;;;5.00;4.00;;;;;10.24;60.41;100003.31;5065106;28;46294;-75
2021/12/05 15:30:14;;;;;;;;;7.67;6.00;;;;;10.22;61.43;100001.84;5061884;27;46137;-73
2021/12/05 15:32:42;;;;;;;;;7.67;4.67;;;;;10.13;60.43;100009.50;5065222;27;45969;-75
2021/12/05 15:35:18;;;;;;;;;4.67;4.00;;;;;10.04;60.36;100011.72;5062872;27;45762;-73
2021/12/05 15:37:53;;;;;;;;;6.00;4.33;;;;;9.98;60.14;100011.75;5070745;28;46460;-79
2021/12/05 15:40:21;;;;;;;;;4.00;4.00;;;;;9.97;60.73;100023.75;5076392;27;45907;-80
2021/12/05 15:42:46;;;;;;;;;5.00;4.00;;;;;9.93;61.31;100023.38;5074398;28;45919;-80
2021/12/05 15:45:15;;;;;;;;;4.00;4.00;;;;;9.94;61.49;100030.53;5072411;27;45417;-73
2021/12/05 15:47:40;;;;;;;;;4.67;4.33;;;;;9.84;60.85;100033.75;5063710;28;46520;-72
2021/12/05 15:50:23;;;;;;;;;3.33;2.33;;;;;9.72;60.64;100041.84;5072533;28;45770;-81
2021/12/05 15:52:56;;;;;;;;;3.67;3.67;;;;;9.61;60.41;100041.72;5076941;27;45474;-82
2021/12/05 15:55:39;;;;;;;;;5.00;3.00;;;;;9.53;60.91;100060.06;5082176;28;45796;-82
2021/12/05 15:58:23;;;;;;;;;4.00;3.67;;;;;9.50;61.55;100068.72;5081418;28;47385;-82
2021/12/05 16:00:58;;;;;;;;;4.00;4.00;;;;;9.44;61.30;100076.97;5074646;27;45649;-83
2021/12/05 16:03:28;;;;;;;;;2.67;2.67;;;;;9.45;62.01;100079.50;5081241;27;45504;-82
2021/12/05 16:05:57;;;;;;;;;5.33;3.67;;;;;9.47;61.31;100076.53;5068724;27;45781;-75
2021/12/05 16:08:26;;;;;;;;;4.67;4.67;;;;;9.46;61.16;100086.66;5072402;27;45736;-73
2021/12/05 16:10:58;;;;;;;;;3.00;3.00;;;;;9.45;61.57;100079.50;5060401;27;45519;-75
2021/12/05 16:13:42;;;;;;;;;4.00;4.00;;;;;9.46;60.99;100096.75;5065366;28;45640;-82
2021/12/05 16:16:14;;;;;;;;;4.33;4.33;;;;;9.42;60.77;100110.03;5064091;28;45544;-83
2021/12/05 16:18:44;;;;;;;;;2.33;2.33;;;;;9.43;60.95;100110.88;5061493;27;45823;-86
2021/12/05 16:21:28;;;;;;;;;3.00;3.00;;;;;9.34;61.20;100100.19;5069378;27;45864;-83
2021/12/05 16:23:56;;;;;;;;;3.33;3.33;;;;;9.43;61.32;100116.34;5070644;27;45842;-82
2021/12/05 16:26:28;;;;;;;;;3.33;3.00;;;;;9.44;61.23;100115.28;5063617;27;45745;-82
2021/12/05 16:29:04;;;;;;;;;3.33;3.33;;;;;9.49;61.19;100118.19;5069968;27;48077;-81
2021/12/05 16:31:33;;;;;;;;;2.67;2.67;;;;;9.52;60.95;100125.97;5071688;27;45672;-83
2021/12/05 16:34:19;;;;;;;;;5.67;5.67;;;;;9.52;61.08;100126.84;5066146;27;45458;-80
2021/12/05 16:36:52;;;;;;;;;4.00;4.00;;;;;9.50;61.32;100128.94;5060017;27;45950;-82
2021/12/05 16:39:30;;;;;;;;;4.00;4.00;;;;;9.53;61.03;100128.50;5061175;27;46255;-82
2021/12/05 16:42:00;;;;;;;;;6.33;5.00;;;;;9.58;61.63;100143.44;5071296;28;45555;-82
2021/12/05 16:44:29;;;;;;;;;4.67;3.67;;;;;9.61;61.19;100140.25;5068612;27;45972;-75
2021/12/05 16:46:58;;;;;;;;;7.33;6.33;;;;;9.64;61.50;100146.16;5067150;27;45667;-81
2021/12/05 16:49:28;;;;;;;;;23.33;18.67;;;;;9.71;62.56;100149.72;5066158;27;46668;-84
2021/12/05 16:51:59;;;;;;;;;14.33;10.00;;;;;9.80;62.03;100152.19;5062878;27;46055;-80
2021/12/05 16:54:29;;;;;;;;;9.00;7.00;;;;;9.84;60.50;100153.44;5059690;27;45499;-73
2021/12/05 16:56:59;;;;;;;;;10.00;7.00;;;;;9.83;60.56;100155.31;5064067;28;46883;-74
2021/12/05 16:59:58;;;;;;;;;6.00;5.00;;;;;9.80;60.21;100155.75;5056452;27;46341;-75
2021/12/05 17:02:50;;;;;;;;;8.00;5.00;;;;;9.81;60.38;100162.91;5064604;28;45548;-78
2021/12/05 17:05:36;;;;;;;;;6.33;6.00;;;;;9.78;59.37;100157.88;5063140;27;45489;-76
2021/12/05 17:08:13;;;;;;;;;9.33;6.00;;;;;9.81;60.00;100171.13;5063985;27;45913;-76